sensor_id;sensor_type;location;lat;lon;timestamp;pressure;altitude;pressure_sealevel;temperature;humidity
32109;BME280;18624;50.042;8.436;2023-02-21T00:01:38;100853.78;;;4.95;94.48
32109;BME280;18624;50.042;8.436;2023-02-21T00:04:24;100982.84;;;5.78;95.50
32109;BME280;18624;50.042;8.436;2023-02-21T00:07:09;100975.44;;;5.75;95.52
32109;BME280;18624;50.042;8.436;2023-02-21T00:09:54;100982.03;;;5.74;95.68
32109;BME280;18624;50.042;8.436;2023-02-21T00:12:39;100969.59;;;5.69;95.87
32109;BME280;18624;50.042;8.436;2023-02-21T00:15:24;100787.66;;;4.15;95.15
32109;BME280;18624;50.042;8.436;2023-02-21T00:18:09;100977.31;;;5.64;96.19
32109;BME280;18624;50.042;8.436;2023-02-21T00:20:54;100964.09;;;5.58;96.37
32109;BME280;18624;50.042;8.436;2023-02-21T00:23:39;100937.56;;;5.41;96.55
32109;BME280;18624;50.042;8.436;2023-02-21T00:26:24;100960.22;;;5.59;97.09
32109;BME280;18624;50.042;8.436;2023-02-21T00:29:10;100953.53;;;5.53;96.74
32109;BME280;18624;50.042;8.436;2023-02-21T00:31:54;100958.22;;;5.56;96.67
32109;BME280;18624;50.042;8.436;2023-02-21T00:34:40;100960.56;;;5.58;96.87
32109;BME280;18624;50.042;8.436;2023-02-21T00:37:25;100950.06;;;5.56;95.73
32109;BME280;18624;50.042;8.436;2023-02-21T00:40:11;100954.72;;;5.52;95.88
32109;BME280;18624;50.042;8.436;2023-02-21T00:42:57;100953.16;;;5.51;96.57
32109;BME280;18624;50.042;8.436;2023-02-21T00:45:43;100936.38;;;5.39;96.32
32109;BME280;18624;50.042;8.436;2023-02-21T00:48:28;100950.81;;;5.46;96.39
32109;BME280;18624;50.042;8.436;2023-02-21T00:51:13;100929.78;;;5.36;95.65
32109;BME280;18624;50.042;8.436;2023-02-21T00:53:58;100951.56;;;5.43;95.79
32109;BME280;18624;50.042;8.436;2023-02-21T00:56:46;100888.34;;;4.98;96.02
32109;BME280;18624;50.042;8.436;2023-02-21T00:59:31;100954.63;;;5.38;96.26
32109;BME280;18624;50.042;8.436;2023-02-21T01:02:16;100937.47;;;5.27;95.52
32109;BME280;18624;50.042;8.436;2023-02-21T01:05:02;100951.84;;;5.27;95.59
32109;BME280;18624;50.042;8.436;2023-02-21T01:07:47;100946.78;;;5.22;95.97
32109;BME280;18624;50.042;8.436;2023-02-21T01:10:32;100961.47;;;5.18;95.50
32109;BME280;18624;50.042;8.436;2023-02-21T01:13:17;100955.56;;;5.08;95.81
32109;BME280;18624;50.042;8.436;2023-02-21T01:16:02;100960.97;;;5.01;96.57
32109;BME280;18624;50.042;8.436;2023-02-21T01:18:47;100965.25;;;5.02;96.48
32109;BME280;18624;50.042;8.436;2023-02-21T01:21:33;100963.66;;;4.98;96.64
32109;BME280;18624;50.042;8.436;2023-02-21T01:24:18;100972.16;;;4.93;97.01
32109;BME280;18624;50.042;8.436;2023-02-21T01:27:03;100969.00;;;4.91;97.14
32109;BME280;18624;50.042;8.436;2023-02-21T01:29:48;100970.19;;;4.90;97.30
32109;BME280;18624;50.042;8.436;2023-02-21T01:32:33;100972.84;;;4.86;97.35
32109;BME280;18624;50.042;8.436;2023-02-21T01:35:18;100971.69;;;4.83;98.39
32109;BME280;18624;50.042;8.436;2023-02-21T01:38:03;100963.50;;;4.80;98.27
32109;BME280;18624;50.042;8.436;2023-02-21T01:40:48;100965.06;;;4.81;99.30
32109;BME280;18624;50.042;8.436;2023-02-21T01:43:34;100966.22;;;4.80;99.03
32109;BME280;18624;50.042;8.436;2023-02-21T01:46:19;100966.56;;;4.75;98.89
32109;BME280;18624;50.042;8.436;2023-02-21T01:49:15;100956.00;;;4.66;100.00
32109;BME280;18624;50.042;8.436;2023-02-21T01:52:03;100961.06;;;4.68;100.00
32109;BME280;18624;50.042;8.436;2023-02-21T01:54:51;100947.47;;;4.68;100.00
32109;BME280;18624;50.042;8.436;2023-02-21T01:57:38;100944.78;;;4.71;100.00
32109;BME280;18624;50.042;8.436;2023-02-21T02:00:25;100947.16;;;4.73;100.00
32109;BME280;18624;50.042;8.436;2023-02-21T02:03:14;100954.09;;;4.70;100.00
32109;BME280;18624;50.042;8.436;2023-02-21T02:06:03;100925.66;;;4.57;100.00
32109;BME280;18624;50.042;8.436;2023-02-21T02:08:48;100953.31;;;4.70;100.00
32109;BME280;18624;50.042;8.436;2023-02-21T02:15:06;100940.13;;;4.72;100.00
32109;BME280;18624;50.042;8.436;2023-02-21T02:17:49;100942.50;;;4.77;100.00
32109;BME280;18624;50.042;8.436;2023-02-21T02:31:51;100932.44;;;4.77;100.00
32109;BME280;18624;50.042;8.436;2023-02-21T02:34:36;100941.38;;;4.78;100.00
32109;BME280;18624;50.042;8.436;2023-02-21T02:37:35;100939.44;;;4.78;100.00
32109;BME280;18624;50.042;8.436;2023-02-21T02:40:27;100806.00;;;3.91;100.00
32109;BME280;18624;50.042;8.436;2023-02-21T02:46:10;100950.31;;;4.78;100.00
32109;BME280;18624;50.042;8.436;2023-02-21T02:48:43;100941.72;;;4.73;100.00
32109;BME280;18624;50.042;8.436;2023-02-21T02:51:13;100930.44;;;4.71;100.00
32109;BME280;18624;50.042;8.436;2023-02-21T02:53:42;100920.31;;;4.64;100.00
32109;BME280;18624;50.042;8.436;2023-02-21T02:56:11;100922.34;;;4.74;100.00
32109;BME280;18624;50.042;8.436;2023-02-21T02:58:42;100939.00;;;4.73;100.00
32109;BME280;18624;50.042;8.436;2023-02-21T03:03:55;100926.88;;;4.63;100.00
32109;BME280;18624;50.042;8.436;2023-02-21T03:06:29;100935.78;;;4.60;100.00
32109;BME280;18624;50.042;8.436;2023-02-21T03:09:11;100931.91;;;4.61;100.00
32109;BME280;18624;50.042;8.436;2023-02-21T03:11:52;100928.38;;;4.57;100.00
32109;BME280;18624;50.042;8.436;2023-02-21T03:14:26;100926.41;;;4.54;100.00
32109;BME280;18624;50.042;8.436;2023-02-21T03:17:00;100925.59;;;4.50;100.00
32109;BME280;18624;50.042;8.436;2023-02-21T03:19:32;100936.44;;;4.46;100.00
32109;BME280;18624;50.042;8.436;2023-02-21T03:22:01;100935.97;;;4.41;100.00
32109;BME280;18624;50.042;8.436;2023-02-21T03:24:31;100939.84;;;4.40;100.00
32109;BME280;18624;50.042;8.436;2023-02-21T03:27:03;100904.34;;;4.18;100.00
32109;BME280;18624;50.042;8.436;2023-02-21T03:29:53;100935.47;;;4.31;100.00
32109;BME280;18624;50.042;8.436;2023-02-21T03:32:32;100936.59;;;4.23;100.00
32109;BME280;18624;50.042;8.436;2023-02-21T03:35:02;100929.56;;;4.19;100.00
32109;BME280;18624;50.042;8.436;2023-02-21T03:37:34;100932.28;;;4.19;100.00
32109;BME280;18624;50.042;8.436;2023-02-21T03:40:01;100935.78;;;4.23;100.00
32109;BME280;18624;50.042;8.436;2023-02-21T03:42:31;100931.94;;;4.27;100.00
32109;BME280;18624;50.042;8.436;2023-02-21T03:44:57;100931.59;;;4.29;100.00
32109;BME280;18624;50.042;8.436;2023-02-21T03:47:25;100925.00;;;4.30;100.00
32109;BME280;18624;50.042;8.436;2023-02-21T03:49:51;100927.72;;;4.30;100.00
32109;BME280;18624;50.042;8.436;2023-02-21T03:52:18;100923.47;;;4.29;100.00
32109;BME280;18624;50.042;8.436;2023-02-21T03:54:44;100930.09;;;4.35;100.00
32109;BME280;18624;50.042;8.436;2023-02-21T03:57:14;100930.53;;;4.37;100.00
32109;BME280;18624;50.042;8.436;2023-02-21T03:59:44;100915.03;;;4.38;100.00
32109;BME280;18624;50.042;8.436;2023-02-21T04:02:12;100915.03;;;4.38;100.00
32109;BME280;18624;50.042;8.436;2023-02-21T04:04:38;100911.53;;;4.37;100.00
32109;BME280;18624;50.042;8.436;2023-02-21T04:07:09;100915.38;;;4.36;100.00
32109;BME280;18624;50.042;8.436;2023-02-21T04:09:36;100921.56;;;4.37;100.00
32109;BME280;18624;50.042;8.436;2023-02-21T04:12:05;100925.09;;;4.37;100.00
32109;BME280;18624;50.042;8.436;2023-02-21T04:14:33;100858.69;;;3.90;100.00
32109;BME280;18624;50.042;8.436;2023-02-21T04:17:00;100923.06;;;4.30;100.00
32109;BME280;18624;50.042;8.436;2023-02-21T04:19:27;100770.56;;;3.36;100.00
32109;BME280;18624;50.042;8.436;2023-02-21T04:21:54;100919.19;;;4.31;100.00
32109;BME280;18624;50.042;8.436;2023-02-21T04:24:20;100921.91;;;4.28;100.00
32109;BME280;18624;50.042;8.436;2023-02-21T04:26:47;100917.59;;;4.27;100.00
32109;BME280;18624;50.042;8.436;2023-02-21T04:29:14;100928.06;;;4.25;100.00
32109;BME280;18624;50.042;8.436;2023-02-21T04:31:41;100917.94;;;4.22;100.00
32109;BME280;18624;50.042;8.436;2023-02-21T04:34:12;100916.38;;;4.21;100.00
32109;BME280;18624;50.042;8.436;2023-02-21T04:36:42;100912.53;;;4.22;100.00
32109;BME280;18624;50.042;8.436;2023-02-21T04:39:08;100914.06;;;4.23;100.00
32109;BME280;18624;50.042;8.436;2023-02-21T04:41:36;100917.94;;;4.22;100.00
32109;BME280;18624;50.042;8.436;2023-02-21T04:44:02;100922.97;;;4.20;100.00
32109;BME280;18624;50.042;8.436;2023-02-21T04:46:31;100919.09;;;4.21;100.00
32109;BME280;18624;50.042;8.436;2023-02-21T04:48:58;100912.91;;;4.20;100.00
32109;BME280;18624;50.042;8.436;2023-02-21T04:51:25;100906.31;;;4.21;100.00
32109;BME280;18624;50.042;8.436;2023-02-21T04:53:52;100765.03;;;3.25;100.00
32109;BME280;18624;50.042;8.436;2023-02-21T04:56:21;100901.63;;;4.18;100.00
32109;BME280;18624;50.042;8.436;2023-02-21T04:58:49;100900.44;;;4.16;100.00
32109;BME280;18624;50.042;8.436;2023-02-21T05:01:17;100902.75;;;4.14;100.00
32109;BME280;18624;50.042;8.436;2023-02-21T05:03:45;100857.06;;;3.82;100.00
32109;BME280;18624;50.042;8.436;2023-02-21T05:06:19;100894.53;;;4.06;100.00
32109;BME280;18624;50.042;8.436;2023-02-21T05:08:46;100869.56;;;3.90;100.00
32109;BME280;18624;50.042;8.436;2023-02-21T05:11:13;100869.19;;;3.92;100.00
32109;BME280;18624;50.042;8.436;2023-02-21T05:13:41;100879.25;;;3.91;100.00
32109;BME280;18624;50.042;8.436;2023-02-21T05:16:08;100898.44;;;4.09;100.00
32109;BME280;18624;50.042;8.436;2023-02-21T05:18:34;100901.13;;;4.05;100.00
32109;BME280;18624;50.042;8.436;2023-02-21T05:21:05;100906.13;;;4.03;100.00
32109;BME280;18624;50.042;8.436;2023-02-21T05:23:32;100897.59;;;4.05;100.00
32109;BME280;18624;50.042;8.436;2023-02-21T05:26:10;100905.69;;;3.98;100.00
32109;BME280;18624;50.042;8.436;2023-02-21T05:28:38;100882.50;;;3.70;100.00
32109;BME280;18624;50.042;8.436;2023-02-21T05:31:06;100903.38;;;3.66;100.00
32109;BME280;18624;50.042;8.436;2023-02-21T05:33:32;100907.63;;;3.67;100.00
32109;BME280;18624;50.042;8.436;2023-02-21T05:35:59;100906.94;;;3.74;100.00
32109;BME280;18624;50.042;8.436;2023-02-21T05:38:26;100903.50;;;3.77;100.00
32109;BME280;18624;50.042;8.436;2023-02-21T05:40:52;100900.09;;;3.84;100.00
32109;BME280;18624;50.042;8.436;2023-02-21T05:43:19;100900.91;;;3.88;100.00
32109;BME280;18624;50.042;8.436;2023-02-21T05:45:45;100902.88;;;3.91;100.00
32109;BME280;18624;50.042;8.436;2023-02-21T05:48:12;100910.28;;;3.94;100.00
32109;BME280;18624;50.042;8.436;2023-02-21T05:50:38;100905.59;;;3.91;100.00
32109;BME280;18624;50.042;8.436;2023-02-21T05:53:05;100793.47;;;3.09;100.00
32109;BME280;18624;50.042;8.436;2023-02-21T05:55:32;100909.06;;;3.91;100.00
32109;BME280;18624;50.042;8.436;2023-02-21T05:57:58;100910.22;;;3.90;100.00
32109;BME280;18624;50.042;8.436;2023-02-21T06:00:28;100910.69;;;3.96;100.00
32109;BME280;18624;50.042;8.436;2023-02-21T06:02:54;100918.50;;;4.01;100.00
32109;BME280;18624;50.042;8.436;2023-02-21T06:05:22;100917.75;;;4.04;100.00
32109;BME280;18624;50.042;8.436;2023-02-21T06:07:49;100917.41;;;4.05;100.00
32109;BME280;18624;50.042;8.436;2023-02-21T06:10:16;100892.78;;;3.88;100.00
32109;BME280;18624;50.042;8.436;2023-02-21T06:12:43;100929.38;;;4.04;100.00
32109;BME280;18624;50.042;8.436;2023-02-21T06:15:09;100897.44;;;3.91;100.00
32109;BME280;18624;50.042;8.436;2023-02-21T06:17:39;100912.66;;;3.99;100.00
32109;BME280;18624;50.042;8.436;2023-02-21T06:20:10;100885.34;;;3.81;100.00
32109;BME280;18624;50.042;8.436;2023-02-21T06:22:37;100913.38;;;3.96;100.00
32109;BME280;18624;50.042;8.436;2023-02-21T06:25:04;100923.50;;;3.99;100.00
32109;BME280;18624;50.042;8.436;2023-02-21T06:27:30;100912.59;;;3.95;100.00
32109;BME280;18624;50.042;8.436;2023-02-21T06:29:57;100915.31;;;3.95;100.00
32109;BME280;18624;50.042;8.436;2023-02-21T06:32:23;100913.81;;;3.98;100.00
32109;BME280;18624;50.042;8.436;2023-02-21T06:34:50;100919.28;;;4.01;100.00
32109;BME280;18624;50.042;8.436;2023-02-21T06:37:17;100923.50;;;3.99;100.00
32109;BME280;18624;50.042;8.436;2023-02-21T06:39:44;100917.00;;;4.07;100.00
32109;BME280;18624;50.042;8.436;2023-02-21T06:42:15;100925.56;;;4.09;100.00
32109;BME280;18624;50.042;8.436;2023-02-21T06:44:46;100925.16;;;4.07;100.00
32109;BME280;18624;50.042;8.436;2023-02-21T06:47:13;100925.09;;;4.03;100.00
32109;BME280;18624;50.042;8.436;2023-02-21T06:49:40;100918.09;;;3.99;100.00
32109;BME280;18624;50.042;8.436;2023-02-21T06:52:07;100923.22;;;4.07;100.00
32109;BME280;18624;50.042;8.436;2023-02-21T06:54:34;100921.28;;;4.08;100.00
32109;BME280;18624;50.042;8.436;2023-02-21T06:57:02;100909.31;;;4.13;100.00
32109;BME280;18624;50.042;8.436;2023-02-21T06:59:29;100912.84;;;4.17;100.00
32109;BME280;18624;50.042;8.436;2023-02-21T07:01:56;100922.25;;;4.26;100.00
32109;BME280;18624;50.042;8.436;2023-02-21T07:04:23;100920.38;;;4.30;100.00
32109;BME280;18624;50.042;8.436;2023-02-21T07:06:51;100923.16;;;4.38;100.00
32109;BME280;18624;50.042;8.436;2023-02-21T07:09:17;100916.22;;;4.44;100.00
32109;BME280;18624;50.042;8.436;2023-02-21T07:11:44;100915.50;;;4.47;100.00
32109;BME280;18624;50.042;8.436;2023-02-21T07:14:12;100909.28;;;4.50;100.00
32109;BME280;18624;50.042;8.436;2023-02-21T07:16:38;100912.06;;;4.53;100.00
32109;BME280;18624;50.042;8.436;2023-02-21T07:19:05;100912.47;;;4.59;100.00
32109;BME280;18624;50.042;8.436;2023-02-21T07:21:31;100910.59;;;4.63;100.00
32109;BME280;18624;50.042;8.436;2023-02-21T07:23:58;100903.25;;;4.67;100.00
32109;BME280;18624;50.042;8.436;2023-02-21T07:26:24;100904.47;;;4.73;100.00
32109;BME280;18624;50.042;8.436;2023-02-21T07:28:51;100909.94;;;4.80;100.00
32109;BME280;18624;50.042;8.436;2023-02-21T07:31:17;100912.31;;;4.86;100.00
32109;BME280;18624;50.042;8.436;2023-02-21T07:33:46;100913.13;;;4.90;100.00
32109;BME280;18624;50.042;8.436;2023-02-21T07:36:12;100905.41;;;4.95;100.00
32109;BME280;18624;50.042;8.436;2023-02-21T07:38:38;100905.41;;;4.95;100.00
32109;BME280;18624;50.042;8.436;2023-02-21T07:41:05;100908.94;;;4.99;100.00
32109;BME280;18624;50.042;8.436;2023-02-21T07:43:31;100916.00;;;5.11;100.00
32109;BME280;18624;50.042;8.436;2023-02-21T07:45:58;100875.50;;;4.88;100.00
32109;BME280;18624;50.042;8.436;2023-02-21T07:48:25;100919.56;;;5.19;100.00
32109;BME280;18624;50.042;8.436;2023-02-21T07:50:51;100912.59;;;5.25;100.00
32109;BME280;18624;50.042;8.436;2023-02-21T07:53:18;100907.56;;;5.23;100.00
32109;BME280;18624;50.042;8.436;2023-02-21T07:55:44;100916.13;;;5.29;100.00
32109;BME280;18624;50.042;8.436;2023-02-21T07:58:11;100917.72;;;5.33;100.00
32109;BME280;18624;50.042;8.436;2023-02-21T08:00:37;100916.97;;;5.37;100.00
32109;BME280;18624;50.042;8.436;2023-02-21T08:03:06;100920.88;;;5.43;100.00
32109;BME280;18624;50.042;8.436;2023-02-21T08:05:32;100915.81;;;5.45;100.00
32109;BME280;18624;50.042;8.436;2023-02-21T08:07:59;100911.53;;;5.44;100.00
32109;BME280;18624;50.042;8.436;2023-02-21T08:10:26;100923.25;;;5.51;100.00
32109;BME280;18624;50.042;8.436;2023-02-21T08:12:53;100922.09;;;5.56;100.00
32109;BME280;18624;50.042;8.436;2023-02-21T08:15:19;100926.41;;;5.61;100.00
32109;BME280;18624;50.042;8.436;2023-02-21T08:17:49;100919.44;;;5.63;100.00
32109;BME280;18624;50.042;8.436;2023-02-21T08:20:17;100930.75;;;5.76;100.00
32109;BME280;18624;50.042;8.436;2023-02-21T08:22:44;100921.09;;;5.89;100.00
32109;BME280;18624;50.042;8.436;2023-02-21T08:25:12;100921.94;;;6.00;100.00
32109;BME280;18624;50.042;8.436;2023-02-21T08:27:40;100920.44;;;6.17;100.00
32109;BME280;18624;50.042;8.436;2023-02-21T08:30:09;100927.88;;;6.31;100.00
32109;BME280;18624;50.042;8.436;2023-02-21T08:32:36;100920.09;;;6.40;100.00
32109;BME280;18624;50.042;8.436;2023-02-21T08:35:03;100922.44;;;6.52;100.00
32109;BME280;18624;50.042;8.436;2023-02-21T08:37:32;100925.19;;;6.63;100.00
32109;BME280;18624;50.042;8.436;2023-02-21T08:40:02;100901.03;;;6.62;100.00
32109;BME280;18624;50.042;8.436;2023-02-21T08:42:29;100911.94;;;6.79;100.00
32109;BME280;18624;50.042;8.436;2023-02-21T08:44:56;100915.09;;;6.85;100.00
32109;BME280;18624;50.042;8.436;2023-02-21T08:47:22;100892.09;;;6.79;100.00
32109;BME280;18624;50.042;8.436;2023-02-21T08:49:49;100911.94;;;6.97;100.00
32109;BME280;18624;50.042;8.436;2023-02-21T08:52:16;100909.63;;;7.03;100.00
32109;BME280;18624;50.042;8.436;2023-02-21T08:54:44;100913.50;;;7.09;100.00
32109;BME280;18624;50.042;8.436;2023-02-21T08:57:10;100913.88;;;7.15;100.00
32109;BME280;18624;50.042;8.436;2023-02-21T08:59:41;100914.66;;;7.19;100.00
32109;BME280;18624;50.042;8.436;2023-02-21T09:02:18;100908.03;;;7.23;100.00
32109;BME280;18624;50.042;8.436;2023-02-21T09:04:45;100911.13;;;7.29;100.00
32109;BME280;18624;50.042;8.436;2023-02-21T09:07:13;100908.78;;;7.34;100.00
32109;BME280;18624;50.042;8.436;2023-02-21T09:09:39;100912.28;;;7.39;100.00
32109;BME280;18624;50.042;8.436;2023-02-21T09:12:06;100906.03;;;7.45;100.00
32109;BME280;18624;50.042;8.436;2023-02-21T09:14:35;100916.13;;;7.52;100.00
32109;BME280;18624;50.042;8.436;2023-02-21T09:17:03;100900.94;;;7.54;100.00
32109;BME280;18624;50.042;8.436;2023-02-21T09:19:30;100902.47;;;7.59;100.00
32109;BME280;18624;50.042;8.436;2023-02-21T09:21:56;100780.00;;;6.84;100.00
32109;BME280;18624;50.042;8.436;2023-02-21T09:24:27;100901.28;;;7.71;100.00
32109;BME280;18624;50.042;8.436;2023-02-21T09:26:55;100898.50;;;7.74;100.00
32109;BME280;18624;50.042;8.436;2023-02-21T09:29:25;100901.63;;;7.80;100.00
32109;BME280;18624;50.042;8.436;2023-02-21T09:32:00;100902.75;;;7.86;100.00
32109;BME280;18624;50.042;8.436;2023-02-21T09:34:27;100903.13;;;7.92;100.00
32109;BME280;18624;50.042;8.436;2023-02-21T09:36:54;100902.34;;;7.95;100.00
32109;BME280;18624;50.042;8.436;2023-02-21T09:39:22;100899.59;;;7.98;100.00
32109;BME280;18624;50.042;8.436;2023-02-21T09:41:50;100907.38;;;8.00;100.00
32109;BME280;18624;50.042;8.436;2023-02-21T09:44:21;100901.56;;;7.98;100.00
32109;BME280;18624;50.042;8.436;2023-02-21T09:46:50;100902.69;;;7.97;100.00
32109;BME280;18624;50.042;8.436;2023-02-21T09:49:32;100894.13;;;8.02;100.00
32109;BME280;18624;50.042;8.436;2023-02-21T09:52:01;100807.84;;;7.49;100.00
32109;BME280;18624;50.042;8.436;2023-02-21T09:54:43;100893.72;;;8.03;100.00
32109;BME280;18624;50.042;8.436;2023-02-21T09:57:14;100895.69;;;7.99;100.00
32109;BME280;18624;50.042;8.436;2023-02-21T09:59:40;100899.59;;;7.98;100.00
32109;BME280;18624;50.042;8.436;2023-02-21T10:07:25;100901.56;;;7.98;100.00
32109;BME280;18624;50.042;8.436;2023-02-21T10:09:54;100897.66;;;7.95;100.00
32109;BME280;18624;50.042;8.436;2023-02-21T10:12:35;100905.84;;;7.95;100.00
32109;BME280;18624;50.042;8.436;2023-02-21T10:15:34;100894.91;;;7.99;100.00
32109;BME280;18624;50.042;8.436;2023-02-21T10:18:14;100908.94;;;8.01;100.00
32109;BME280;18624;50.042;8.436;2023-02-21T10:20:51;100896.81;;;8.05;100.00
32109;BME280;18624;50.042;8.436;2023-02-21T10:23:23;100875.44;;;7.93;100.00
32109;BME280;18624;50.042;8.436;2023-02-21T10:25:57;100894.47;;;8.07;100.00
32109;BME280;18624;50.042;8.436;2023-02-21T10:28:28;100886.31;;;8.00;100.00
32109;BME280;18624;50.042;8.436;2023-02-21T10:30:58;100895.66;;;8.06;100.00
32109;BME280;18624;50.042;8.436;2023-02-21T10:33:25;100890.56;;;8.08;100.00
32109;BME280;18624;50.042;8.436;2023-02-21T10:35:52;100892.09;;;8.09;100.00
32109;BME280;18624;50.042;8.436;2023-02-21T10:38:23;100893.25;;;8.16;100.00
32109;BME280;18624;50.042;8.436;2023-02-21T10:40:56;100900.63;;;8.19;100.00
32109;BME280;18624;50.042;8.436;2023-02-21T10:43:26;100896.34;;;8.21;100.00
32109;BME280;18624;50.042;8.436;2023-02-21T10:46:10;100904.13;;;8.26;100.00
32109;BME280;18624;50.042;8.436;2023-02-21T10:48:39;100815.88;;;7.74;100.00
32109;BME280;18624;50.042;8.436;2023-02-21T10:51:28;100888.47;;;8.30;100.00
32109;BME280;18624;50.042;8.436;2023-02-21T10:54:16;100895.06;;;8.40;100.00
32109;BME280;18624;50.042;8.436;2023-02-21T10:56:44;100894.66;;;8.42;100.00
32109;BME280;18624;50.042;8.436;2023-02-21T10:59:19;100888.84;;;8.40;100.00
32109;BME280;18624;50.042;8.436;2023-02-21T11:01:47;100892.31;;;8.44;100.00
32109;BME280;18624;50.042;8.436;2023-02-21T11:09:40;100877.81;;;8.54;100.00
32109;BME280;18624;50.042;8.436;2023-02-21T11:12:19;100877.41;;;8.55;100.00
32109;BME280;18624;50.042;8.436;2023-02-21T11:17:18;100869.16;;;8.62;100.00
32109;BME280;18624;50.042;8.436;2023-02-21T11:22:37;100863.66;;;8.66;100.00
32109;BME280;18624;50.042;8.436;2023-02-21T11:25:24;100864.44;;;8.67;100.00
32109;BME280;18624;50.042;8.436;2023-02-21T11:28:20;100862.47;;;8.67;100.00
32109;BME280;18624;50.042;8.436;2023-02-21T11:33:31;100839.00;;;8.73;100.00
32109;BME280;18624;50.042;8.436;2023-02-21T11:36:16;100846.69;;;8.85;100.00
32109;BME280;18624;50.042;8.436;2023-02-21T11:38:58;100839.25;;;8.86;100.00
32109;BME280;18624;50.042;8.436;2023-02-21T11:41:30;100833.41;;;8.87;100.00
32109;BME280;18624;50.042;8.436;2023-02-21T11:44:00;100824.34;;;8.94;100.00
32109;BME280;18624;50.042;8.436;2023-02-21T11:46:38;100818.81;;;9.01;100.00
32109;BME280;18624;50.042;8.436;2023-02-21T11:49:31;100819.91;;;9.07;100.00
32109;BME280;18624;50.042;8.436;2023-02-21T11:52:02;100804.66;;;9.10;100.00
32109;BME280;18624;50.042;8.436;2023-02-21T11:54:31;100806.22;;;9.11;100.00
32109;BME280;18624;50.042;8.436;2023-02-21T11:57:03;100799.97;;;9.10;100.00
32109;BME280;18624;50.042;8.436;2023-02-21T12:02:27;100798.16;;;9.31;100.00
32109;BME280;18624;50.042;8.436;2023-02-21T12:11:03;100779.25;;;9.44;100.00
32109;BME280;18624;50.042;8.436;2023-02-21T12:14:02;100772.97;;;9.47;100.00
32109;BME280;18624;50.042;8.436;2023-02-21T12:30:40;100749.72;;;9.58;100.00
32109;BME280;18624;50.042;8.436;2023-02-21T12:33:20;100750.88;;;9.61;100.00
32109;BME280;18624;50.042;8.436;2023-02-21T12:38:54;100740.22;;;9.67;100.00
32109;BME280;18624;50.042;8.436;2023-02-21T12:47:10;100732.81;;;9.90;100.00
32109;BME280;18624;50.042;8.436;2023-02-21T12:49:53;100720.69;;;9.92;100.00
32109;BME280;18624;50.042;8.436;2023-02-21T12:52:38;100722.06;;;10.03;100.00
32109;BME280;18624;50.042;8.436;2023-02-21T12:55:19;100720.81;;;10.08;100.00
32109;BME280;18624;50.042;8.436;2023-02-21T13:00:44;100719.44;;;10.20;99.35
32109;BME280;18624;50.042;8.436;2023-02-21T13:03:39;100709.22;;;10.24;100.00
32109;BME280;18624;50.042;8.436;2023-02-21T13:06:25;100708.00;;;10.28;100.00
32109;BME280;18624;50.042;8.436;2023-02-21T13:09:14;100706.34;;;10.31;100.00
32109;BME280;18624;50.042;8.436;2023-02-21T13:12:08;100702.03;;;10.33;100.00
32109;BME280;18624;50.042;8.436;2023-02-21T13:14:44;100571.50;;;9.56;100.00
32109;BME280;18624;50.042;8.436;2023-02-21T13:17:13;100676.72;;;10.26;100.00
32109;BME280;18624;50.042;8.436;2023-02-21T13:28:31;100637.19;;;10.27;98.95
32109;BME280;18624;50.042;8.436;2023-02-21T13:31:04;100661.41;;;10.48;100.00
32109;BME280;18624;50.042;8.436;2023-02-21T13:33:49;100629.25;;;10.32;98.96
32109;BME280;18624;50.042;8.436;2023-02-21T13:36:22;100676.19;;;10.54;99.34
32109;BME280;18624;50.042;8.436;2023-02-21T13:38:58;100651.72;;;10.44;99.01
32109;BME280;18624;50.042;8.436;2023-02-21T13:41:27;100655.22;;;10.44;98.03
32109;BME280;18624;50.042;8.436;2023-02-21T13:43:55;100583.09;;;10.07;96.46
32109;BME280;18624;50.042;8.436;2023-02-21T13:52:33;100642.53;;;10.54;99.31
32109;BME280;18624;50.042;8.436;2023-02-21T13:57:48;100628.75;;;10.57;99.96
32109;BME280;18624;50.042;8.436;2023-02-21T14:21:11;100613.00;;;10.61;100.00
32109;BME280;18624;50.042;8.436;2023-02-21T14:23:45;100606.31;;;10.62;100.00
32109;BME280;18624;50.042;8.436;2023-02-21T14:39:50;100602.94;;;10.75;100.00
32109;BME280;18624;50.042;8.436;2023-02-21T14:47:56;100585.91;;;10.83;98.62
32109;BME280;18624;50.042;8.436;2023-02-21T14:54:05;100575.13;;;10.93;98.62
32109;BME280;18624;50.042;8.436;2023-02-21T14:56:56;100580.63;;;10.93;98.46
32109;BME280;18624;50.042;8.436;2023-02-21T14:59:29;100570.72;;;10.99;97.65
32109;BME280;18624;50.042;8.436;2023-02-21T15:10:26;100567.28;;;10.95;100.00
32109;BME280;18624;50.042;8.436;2023-02-21T15:12:59;100561.44;;;10.93;100.00
32109;BME280;18624;50.042;8.436;2023-02-21T15:15:38;100563.66;;;10.98;100.00
32109;BME280;18624;50.042;8.436;2023-02-21T15:18:10;100563.66;;;10.98;100.00
32109;BME280;18624;50.042;8.436;2023-02-21T15:20:41;100557.66;;;11.03;99.81
32109;BME280;18624;50.042;8.436;2023-02-21T15:23:19;100555.19;;;11.08;99.12
32109;BME280;18624;50.042;8.436;2023-02-21T15:25:57;100502.09;;;10.66;99.51
32109;BME280;18624;50.042;8.436;2023-02-21T15:28:30;100546.69;;;11.03;100.00
32109;BME280;18624;50.042;8.436;2023-02-21T15:31:08;100557.94;;;11.08;99.14
32109;BME280;18624;50.042;8.436;2023-02-21T15:33:37;100549.72;;;11.08;99.32
32109;BME280;18624;50.042;8.436;2023-02-21T15:44:15;100540.63;;;10.95;100.00
32109;BME280;18624;50.042;8.436;2023-02-21T15:46:50;100543.44;;;10.92;100.00
32109;BME280;18624;50.042;8.436;2023-02-21T15:49:41;100538.03;;;10.88;100.00
32109;BME280;18624;50.042;8.436;2023-02-21T16:00:42;100539.03;;;10.78;100.00
32109;BME280;18624;50.042;8.436;2023-02-21T16:03:25;100539.47;;;10.76;100.00